sensor_id;sensor_type;location;lat;lon;timestamp;pressure;altitude;pressure_sealevel;temperature;humidity
51928;BME280;37953;52.806;18.270;2023-04-20T00:01:51;101070.63;;;8.01;100.00
51928;BME280;37953;52.806;18.270;2023-04-20T00:04:17;101067.97;;;7.98;100.00
51928;BME280;37953;52.806;18.270;2023-04-20T00:06:44;101073.97;;;7.97;100.00
51928;BME280;37953;52.806;18.270;2023-04-20T00:09:13;101073.13;;;7.97;100.00
51928;BME280;37953;52.806;18.270;2023-04-20T00:11:39;101076.56;;;7.97;100.00
51928;BME280;37953;52.806;18.270;2023-04-20T00:14:06;101079.16;;;7.97;100.00
51928;BME280;37953;52.806;18.270;2023-04-20T00:16:32;101080.91;;;7.98;100.00
51928;BME280;37953;52.806;18.270;2023-04-20T00:18:59;101079.16;;;7.97;100.00
51928;BME280;37953;52.806;18.270;2023-04-20T00:21:25;101086.91;;;7.97;100.00
51928;BME280;37953;52.806;18.270;2023-04-20T00:23:51;101082.56;;;7.94;100.00
51928;BME280;37953;52.806;18.270;2023-04-20T00:26:18;101091.28;;;7.98;100.00
51928;BME280;37953;52.806;18.270;2023-04-20T00:28:44;101086.09;;;8.00;100.00
51928;BME280;37953;52.806;18.270;2023-04-20T00:31:10;101081.84;;;8.00;100.00
51928;BME280;37953;52.806;18.270;2023-04-20T00:33:36;101091.38;;;8.03;100.00
51928;BME280;37953;52.806;18.270;2023-04-20T00:36:02;101094.81;;;8.03;100.00
51928;BME280;37953;52.806;18.270;2023-04-20T00:38:28;101087.97;;;8.05;100.00
51928;BME280;37953;52.806;18.270;2023-04-20T00:40:54;101089.72;;;8.06;100.00
51928;BME280;37953;52.806;18.270;2023-04-20T00:43:21;101089.78;;;8.09;100.00
51928;BME280;37953;52.806;18.270;2023-04-20T00:45:46;101088.94;;;8.10;100.00
51928;BME280;37953;52.806;18.270;2023-04-20T00:48:13;101096.75;;;8.12;100.00
51928;BME280;37953;52.806;18.270;2023-04-20T00:50:39;101089.03;;;8.13;100.00
51928;BME280;37953;52.806;18.270;2023-04-20T00:53:06;101086.47;;;8.15;100.00
51928;BME280;37953;52.806;18.270;2023-04-20T00:55:38;101095.13;;;8.15;100.00
51928;BME280;37953;52.806;18.270;2023-04-20T00:58:05;101089.09;;;8.16;100.00
51928;BME280;37953;52.806;18.270;2023-04-20T01:00:32;101090.00;;;8.19;100.00
51928;BME280;37953;52.806;18.270;2023-04-20T01:02:58;101084.00;;;8.20;100.00
51928;BME280;37953;52.806;18.270;2023-04-20T01:05:24;101086.59;;;8.21;100.00
51928;BME280;37953;52.806;18.270;2023-04-20T01:07:51;101086.63;;;8.23;100.00
51928;BME280;37953;52.806;18.270;2023-04-20T01:10:17;101096.16;;;8.24;100.00
51928;BME280;37953;52.806;18.270;2023-04-20T01:12:43;101091.91;;;8.26;100.00
51928;BME280;37953;52.806;18.270;2023-04-20T01:15:10;101091.91;;;8.26;100.00
51928;BME280;37953;52.806;18.270;2023-04-20T01:17:36;101087.63;;;8.28;100.00
51928;BME280;37953;52.806;18.270;2023-04-20T01:20:10;101085.06;;;8.29;100.00
51928;BME280;37953;52.806;18.270;2023-04-20T01:22:48;101090.31;;;8.32;100.00
51928;BME280;37953;52.806;18.270;2023-04-20T01:25:15;101079.09;;;8.32;100.00
51928;BME280;37953;52.806;18.270;2023-04-20T01:27:41;101073.06;;;8.33;100.00
51928;BME280;37953;52.806;18.270;2023-04-20T01:30:08;101067.00;;;8.32;100.00
51928;BME280;37953;52.806;18.270;2023-04-20T01:32:34;101073.13;;;8.36;100.00
51928;BME280;37953;52.806;18.270;2023-04-20T01:35:01;101073.13;;;8.36;100.00
51928;BME280;37953;52.806;18.270;2023-04-20T01:37:28;101084.38;;;8.38;100.00
51928;BME280;37953;52.806;18.270;2023-04-20T01:39:54;101072.31;;;8.39;100.00
51928;BME280;37953;52.806;18.270;2023-04-20T01:42:21;101070.56;;;8.38;100.00
51928;BME280;37953;52.806;18.270;2023-04-20T01:44:46;101073.16;;;8.38;100.00
51928;BME280;37953;52.806;18.270;2023-04-20T01:47:12;101070.56;;;8.38;100.00
51928;BME280;37953;52.806;18.270;2023-04-20T01:49:38;101080.91;;;8.38;100.00
51928;BME280;37953;52.806;18.270;2023-04-20T01:52:06;101067.91;;;8.34;100.00
51928;BME280;37953;52.806;18.270;2023-04-20T01:54:32;101075.78;;;8.39;100.00
51928;BME280;37953;52.806;18.270;2023-04-20T01:57:04;101066.28;;;8.40;100.00
51928;BME280;37953;52.806;18.270;2023-04-20T01:59:30;101082.75;;;8.42;100.00
51928;BME280;37953;52.806;18.270;2023-04-20T02:01:56;101079.31;;;8.41;100.00
51928;BME280;37953;52.806;18.270;2023-04-20T02:04:23;101074.00;;;8.38;100.00
51928;BME280;37953;52.806;18.270;2023-04-20T02:06:49;101077.59;;;8.42;100.00
51928;BME280;37953;52.806;18.270;2023-04-20T02:09:15;101074.19;;;8.43;100.00
51928;BME280;37953;52.806;18.270;2023-04-20T02:11:41;101083.63;;;8.42;100.00
51928;BME280;37953;52.806;18.270;2023-04-20T02:14:07;101078.50;;;8.44;100.00
51928;BME280;37953;52.806;18.270;2023-04-20T02:16:34;101069.84;;;8.43;100.00
51928;BME280;37953;52.806;18.270;2023-04-20T02:18:59;101072.44;;;8.43;100.00
51928;BME280;37953;52.806;18.270;2023-04-20T02:21:26;101075.91;;;8.44;100.00
51928;BME280;37953;52.806;18.270;2023-04-20T02:23:52;101072.50;;;8.45;100.00
51928;BME280;37953;52.806;18.270;2023-04-20T02:26:18;101069.84;;;8.43;100.00
51928;BME280;37953;52.806;18.270;2023-04-20T02:28:44;101070.78;;;8.45;100.00
51928;BME280;37953;52.806;18.270;2023-04-20T02:31:10;101069.91;;;8.45;100.00
51928;BME280;37953;52.806;18.270;2023-04-20T02:33:36;101069.03;;;8.46;100.00
51928;BME280;37953;52.806;18.270;2023-04-20T02:36:03;101069.00;;;8.44;100.00
51928;BME280;37953;52.806;18.270;2023-04-20T02:38:29;101073.34;;;8.45;100.00
51928;BME280;37953;52.806;18.270;2023-04-20T02:40:55;101069.91;;;8.46;100.00
51928;BME280;37953;52.806;18.270;2023-04-20T02:43:20;101077.69;;;8.46;100.00
51928;BME280;37953;52.806;18.270;2023-04-20T02:45:47;101087.16;;;8.46;100.00
51928;BME280;37953;52.806;18.270;2023-04-20T02:48:13;101082.84;;;8.45;100.00
51928;BME280;37953;52.806;18.270;2023-04-20T02:50:45;101081.13;;;8.45;100.00
51928;BME280;37953;52.806;18.270;2023-04-20T02:53:11;101085.41;;;8.43;100.00
51928;BME280;37953;52.806;18.270;2023-04-20T02:55:43;101076.72;;;8.41;100.00
51928;BME280;37953;52.806;18.270;2023-04-20T02:58:09;101070.59;;;8.39;100.00
51928;BME280;37953;52.806;18.270;2023-04-20T03:00:35;101076.59;;;8.38;100.00
51928;BME280;37953;52.806;18.270;2023-04-20T03:03:01;101080.06;;;8.37;100.00
51928;BME280;37953;52.806;18.270;2023-04-20T03:05:27;101083.50;;;8.36;100.00
51928;BME280;37953;52.806;18.270;2023-04-20T03:07:53;101079.16;;;8.35;100.00
51928;BME280;37953;52.806;18.270;2023-04-20T03:10:19;101080.00;;;8.34;100.00
51928;BME280;37953;52.806;18.270;2023-04-20T03:12:45;101084.28;;;8.33;100.00
51928;BME280;37953;52.806;18.270;2023-04-20T03:15:11;101067.88;;;8.33;100.00
51928;BME280;37953;52.806;18.270;2023-04-20T03:17:37;101083.41;;;8.33;100.00
51928;BME280;37953;52.806;18.270;2023-04-20T03:20:03;101081.69;;;8.32;100.00
51928;BME280;37953;52.806;18.270;2023-04-20T03:22:29;101074.75;;;8.31;100.00
51928;BME280;37953;52.806;18.270;2023-04-20T03:24:55;101079.03;;;8.30;100.00
51928;BME280;37953;52.806;18.270;2023-04-20T03:27:21;101084.22;;;8.30;100.00
51928;BME280;37953;52.806;18.270;2023-04-20T03:29:47;101088.53;;;8.30;100.00
51928;BME280;37953;52.806;18.270;2023-04-20T03:32:13;101084.19;;;8.29;100.00
51928;BME280;37953;52.806;18.270;2023-04-20T03:34:39;101082.41;;;8.26;100.00
51928;BME280;37953;52.806;18.270;2023-04-20T03:37:05;101087.59;;;8.26;100.00
51928;BME280;37953;52.806;18.270;2023-04-20T03:39:31;101084.09;;;8.24;100.00
51928;BME280;37953;52.806;18.270;2023-04-20T03:41:57;101083.19;;;8.22;100.00
51928;BME280;37953;52.806;18.270;2023-04-20T03:44:24;101086.59;;;8.21;100.00
51928;BME280;37953;52.806;18.270;2023-04-20T03:46:49;101084.84;;;8.20;100.00
51928;BME280;37953;52.806;18.270;2023-04-20T03:49:15;101083.13;;;8.19;100.00
51928;BME280;37953;52.806;18.270;2023-04-20T03:51:41;101093.44;;;8.18;100.00
51928;BME280;37953;52.806;18.270;2023-04-20T03:54:07;101094.25;;;8.16;100.00
51928;BME280;37953;52.806;18.270;2023-04-20T03:56:33;101088.22;;;8.16;100.00
51928;BME280;37953;52.806;18.270;2023-04-20T03:58:59;101089.94;;;8.15;100.00
51928;BME280;37953;52.806;18.270;2023-04-20T04:01:25;101090.81;;;8.16;100.00
51928;BME280;37953;52.806;18.270;2023-04-20T04:03:51;101090.81;;;8.16;100.00
51928;BME280;37953;52.806;18.270;2023-04-20T04:06:17;101089.09;;;8.16;100.00
51928;BME280;37953;52.806;18.270;2023-04-20T04:08:43;101099.44;;;8.16;100.00
51928;BME280;37953;52.806;18.270;2023-04-20T04:11:09;101102.06;;;8.18;100.00
51928;BME280;37953;52.806;18.270;2023-04-20T04:13:35;101087.41;;;8.17;100.00
51928;BME280;37953;52.806;18.270;2023-04-20T04:16:01;101097.75;;;8.19;100.00
51928;BME280;37953;52.806;18.270;2023-04-20T04:18:27;101093.47;;;8.19;100.00
51928;BME280;37953;52.806;18.270;2023-04-20T04:20:59;101092.56;;;8.19;100.00
51928;BME280;37953;52.806;18.270;2023-04-20T04:23:25;101095.16;;;8.19;100.00
51928;BME280;37953;52.806;18.270;2023-04-20T04:25:51;101099.53;;;8.20;100.00
51928;BME280;37953;52.806;18.270;2023-04-20T04:28:17;101100.44;;;8.22;100.00
51928;BME280;37953;52.806;18.270;2023-04-20T04:30:43;101097.84;;;8.22;100.00
51928;BME280;37953;52.806;18.270;2023-04-20T04:33:10;101101.34;;;8.24;100.00
51928;BME280;37953;52.806;18.270;2023-04-20T04:35:45;101099.63;;;8.24;100.00
51928;BME280;37953;52.806;18.270;2023-04-20T04:38:11;101108.25;;;8.25;100.00
51928;BME280;37953;52.806;18.270;2023-04-20T04:40:40;101106.63;;;8.28;100.00
51928;BME280;37953;52.806;18.270;2023-04-20T04:43:07;101110.94;;;8.29;100.00
51928;BME280;37953;52.806;18.270;2023-04-20T04:45:38;101110.09;;;8.30;100.00
51928;BME280;37953;52.806;18.270;2023-04-20T04:48:06;101117.88;;;8.30;100.00
51928;BME280;37953;52.806;18.270;2023-04-20T04:50:34;101120.50;;;8.32;100.00
51928;BME280;37953;52.806;18.270;2023-04-20T04:53:00;101121.34;;;8.31;100.00
51928;BME280;37953;52.806;18.270;2023-04-20T04:55:33;101127.41;;;8.33;100.00
51928;BME280;37953;52.806;18.270;2023-04-20T04:57:59;101133.44;;;8.32;100.00
51928;BME280;37953;52.806;18.270;2023-04-20T05:00:26;101136.06;;;8.33;100.00
51928;BME280;37953;52.806;18.270;2023-04-20T05:02:52;101126.59;;;8.34;100.00
51928;BME280;37953;52.806;18.270;2023-04-20T05:05:19;101126.66;;;8.37;100.00
51928;BME280;37953;52.806;18.270;2023-04-20T05:07:45;101125.78;;;8.38;100.00
51928;BME280;37953;52.806;18.270;2023-04-20T05:10:11;101128.50;;;8.41;100.00
51928;BME280;37953;52.806;18.270;2023-04-20T05:12:37;101132.88;;;8.44;100.00
51928;BME280;37953;52.806;18.270;2023-04-20T05:15:04;101132.94;;;8.47;100.00
51928;BME280;37953;52.806;18.270;2023-04-20T05:17:30;101123.50;;;8.49;100.00
51928;BME280;37953;52.806;18.270;2023-04-20T05:19:56;101131.38;;;8.53;100.00
51928;BME280;37953;52.806;18.270;2023-04-20T05:22:22;101136.63;;;8.58;100.00
51928;BME280;37953;52.806;18.270;2023-04-20T05:24:48;101134.09;;;8.60;100.00
51928;BME280;37953;52.806;18.270;2023-04-20T05:27:14;101140.19;;;8.63;100.00
51928;BME280;37953;52.806;18.270;2023-04-20T05:29:40;101136.81;;;8.67;100.00
51928;BME280;37953;52.806;18.270;2023-04-20T05:32:06;101145.53;;;8.71;100.00
51928;BME280;37953;52.806;18.270;2023-04-20T05:34:32;101135.22;;;8.74;100.00
51928;BME280;37953;52.806;18.270;2023-04-20T05:36:58;101141.38;;;8.77;100.00
51928;BME280;37953;52.806;18.270;2023-04-20T05:39:24;101140.59;;;8.82;100.00
51928;BME280;37953;52.806;18.270;2023-04-20T05:41:51;101136.34;;;8.85;100.00
51928;BME280;37953;52.806;18.270;2023-04-20T05:44:23;101143.34;;;8.91;100.00
51928;BME280;37953;52.806;18.270;2023-04-20T05:46:49;101146.88;;;8.94;100.00
51928;BME280;37953;52.806;18.270;2023-04-20T05:49:15;101151.28;;;8.99;100.00
51928;BME280;37953;52.806;18.270;2023-04-20T05:51:41;101148.78;;;9.02;100.00
51928;BME280;37953;52.806;18.270;2023-04-20T05:54:09;101151.47;;;9.06;100.00
51928;BME280;37953;52.806;18.270;2023-04-20T05:56:35;101154.97;;;9.10;100.00
51928;BME280;37953;52.806;18.270;2023-04-20T05:59:01;101147.25;;;9.13;100.00
51928;BME280;37953;52.806;18.270;2023-04-20T06:01:28;101148.22;;;9.16;100.00
51928;BME280;37953;52.806;18.270;2023-04-20T06:03:53;101163.84;;;9.21;100.00
51928;BME280;37953;52.806;18.270;2023-04-20T06:06:20;101169.13;;;9.26;100.00
51928;BME280;37953;52.806;18.270;2023-04-20T06:08:45;101172.69;;;9.32;100.00
51928;BME280;37953;52.806;18.270;2023-04-20T06:11:12;101181.44;;;9.37;100.00
51928;BME280;37953;52.806;18.270;2023-04-20T06:13:37;101177.22;;;9.43;100.00
51928;BME280;37953;52.806;18.270;2023-04-20T06:16:04;101171.28;;;9.48;100.00
51928;BME280;37953;52.806;18.270;2023-04-20T06:18:34;101172.22;;;9.53;100.00
51928;BME280;37953;52.806;18.270;2023-04-20T06:21:02;101172.34;;;9.60;100.00
51928;BME280;37953;52.806;18.270;2023-04-20T06:23:28;101181.06;;;9.65;100.00
51928;BME280;37953;52.806;18.270;2023-04-20T06:25:54;101174.22;;;9.68;100.00
51928;BME280;37953;52.806;18.270;2023-04-20T06:28:20;101182.03;;;9.71;100.00
51928;BME280;37953;52.806;18.270;2023-04-20T06:30:46;101166.47;;;9.70;100.00
51928;BME280;37953;52.806;18.270;2023-04-20T06:33:12;101176.88;;;9.73;100.00
51928;BME280;37953;52.806;18.270;2023-04-20T06:35:44;101164.75;;;9.70;100.00
51928;BME280;37953;52.806;18.270;2023-04-20T06:38:10;101171.69;;;9.73;100.00
51928;BME280;37953;52.806;18.270;2023-04-20T06:40:36;101168.28;;;9.74;100.00
51928;BME280;37953;52.806;18.270;2023-04-20T06:43:02;101170.88;;;9.75;100.00
51928;BME280;37953;52.806;18.270;2023-04-20T06:45:28;101169.22;;;9.79;100.00
51928;BME280;37953;52.806;18.270;2023-04-20T06:47:54;101169.25;;;9.81;100.00
51928;BME280;37953;52.806;18.270;2023-04-20T06:50:20;101170.16;;;9.83;100.00
51928;BME280;37953;52.806;18.270;2023-04-20T06:52:46;101172.78;;;9.86;100.00
51928;BME280;37953;52.806;18.270;2023-04-20T06:55:13;101174.59;;;9.90;100.00
51928;BME280;37953;52.806;18.270;2023-04-20T06:57:39;101177.25;;;9.93;100.00
51928;BME280;37953;52.806;18.270;2023-04-20T07:00:14;101179.88;;;9.96;100.00
51928;BME280;37953;52.806;18.270;2023-04-20T07:02:45;101166.06;;;9.97;100.00
51928;BME280;37953;52.806;18.270;2023-04-20T07:05:12;101182.59;;;10.02;100.00
51928;BME280;37953;52.806;18.270;2023-04-20T07:07:38;101176.56;;;10.05;100.00
51928;BME280;37953;52.806;18.270;2023-04-20T07:10:09;101183.50;;;10.07;100.00
51928;BME280;37953;52.806;18.270;2023-04-20T07:12:36;101190.50;;;10.11;100.00
51928;BME280;37953;52.806;18.270;2023-04-20T07:15:03;101188.81;;;10.12;100.00
51928;BME280;37953;52.806;18.270;2023-04-20T07:17:30;101189.72;;;10.15;100.00
51928;BME280;37953;52.806;18.270;2023-04-20T07:19:56;101189.75;;;10.17;100.00
51928;BME280;37953;52.806;18.270;2023-04-20T07:22:26;101197.59;;;10.22;100.00
51928;BME280;37953;52.806;18.270;2023-04-20T07:24:52;101191.59;;;10.26;100.00
51928;BME280;37953;52.806;18.270;2023-04-20T07:27:18;101196.88;;;10.29;100.00
51928;BME280;37953;52.806;18.270;2023-04-20T07:29:44;101196.94;;;10.32;100.00
51928;BME280;37953;52.806;18.270;2023-04-20T07:32:10;101197.84;;;10.34;100.00
51928;BME280;37953;52.806;18.270;2023-04-20T07:34:36;101202.19;;;10.36;100.00
51928;BME280;37953;52.806;18.270;2023-04-20T07:37:01;101205.69;;;10.38;100.00
51928;BME280;37953;52.806;18.270;2023-04-20T07:39:27;101207.47;;;10.43;100.00
51928;BME280;37953;52.806;18.270;2023-04-20T07:41:55;101214.44;;;10.44;100.00
51928;BME280;37953;52.806;18.270;2023-04-20T07:44:27;101206.66;;;10.45;100.00
51928;BME280;37953;52.806;18.270;2023-04-20T07:46:53;101211.91;;;10.48;100.00
51928;BME280;37953;52.806;18.270;2023-04-20T07:49:20;101209.34;;;10.51;100.00
51928;BME280;37953;52.806;18.270;2023-04-20T07:51:46;101218.06;;;10.55;100.00
51928;BME280;37953;52.806;18.270;2023-04-20T07:54:12;101213.78;;;10.60;100.00
51928;BME280;37953;52.806;18.270;2023-04-20T07:56:38;101215.59;;;10.63;100.00
51928;BME280;37953;52.806;18.270;2023-04-20T07:59:04;101213.88;;;10.66;100.00
51928;BME280;37953;52.806;18.270;2023-04-20T08:01:30;101212.22;;;10.70;100.00
51928;BME280;37953;52.806;18.270;2023-04-20T08:03:56;101214.84;;;10.73;100.00
51928;BME280;37953;52.806;18.270;2023-04-20T08:06:22;101207.13;;;10.77;100.00
51928;BME280;37953;52.806;18.270;2023-04-20T08:08:48;101208.03;;;10.81;100.00
51928;BME280;37953;52.806;18.270;2023-04-20T08:11:14;101208.97;;;10.85;100.00
51928;BME280;37953;52.806;18.270;2023-04-20T08:13:40;101215.97;;;10.92;100.00
51928;BME280;37953;52.806;18.270;2023-04-20T08:16:06;101217.78;;;10.97;100.00
51928;BME280;37953;52.806;18.270;2023-04-20T08:18:32;101213.50;;;11.03;100.00
51928;BME280;37953;52.806;18.270;2023-04-20T08:20:58;101211.84;;;11.06;100.00
51928;BME280;37953;52.806;18.270;2023-04-20T08:23:25;101211.88;;;11.11;100.00
51928;BME280;37953;52.806;18.270;2023-04-20T08:25:53;101213.66;;;11.15;100.00
51928;BME280;37953;52.806;18.270;2023-04-20T08:28:23;101218.94;;;11.21;100.00
51928;BME280;37953;52.806;18.270;2023-04-20T08:30:49;101216.47;;;11.30;100.00
51928;BME280;37953;52.806;18.270;2023-04-20T08:33:16;101213.06;;;11.36;100.00
51928;BME280;37953;52.806;18.270;2023-04-20T08:35:42;101206.19;;;11.41;100.00
51928;BME280;37953;52.806;18.270;2023-04-20T08:38:08;101217.50;;;11.46;100.00
51928;BME280;37953;52.806;18.270;2023-04-20T08:40:40;101208.00;;;11.51;100.00
51928;BME280;37953;52.806;18.270;2023-04-20T08:43:07;101208.09;;;11.57;100.00
51928;BME280;37953;52.806;18.270;2023-04-20T08:45:32;101207.31;;;11.65;100.00
51928;BME280;37953;52.806;18.270;2023-04-20T08:48:03;101209.97;;;11.71;100.00
51928;BME280;37953;52.806;18.270;2023-04-20T08:50:31;101197.00;;;11.75;100.00
51928;BME280;37953;52.806;18.270;2023-04-20T08:52:57;101206.59;;;11.79;100.00
51928;BME280;37953;52.806;18.270;2023-04-20T08:55:23;101204.03;;;11.86;100.00
51928;BME280;37953;52.806;18.270;2023-04-20T08:57:49;101214.56;;;11.92;100.00
51928;BME280;37953;52.806;18.270;2023-04-20T09:00:16;101212.88;;;11.98;100.00
51928;BME280;37953;52.806;18.270;2023-04-20T09:02:50;101212.03;;;12.04;100.00
51928;BME280;37953;52.806;18.270;2023-04-20T09:05:26;101212.97;;;12.09;100.00
51928;BME280;37953;52.806;18.270;2023-04-20T09:07:54;101204.31;;;12.15;100.00
51928;BME280;37953;52.806;18.270;2023-04-20T09:10:22;101200.03;;;12.21;100.00
51928;BME280;37953;52.806;18.270;2023-04-20T09:12:51;101207.84;;;12.23;100.00
51928;BME280;37953;52.806;18.270;2023-04-20T09:15:26;101204.41;;;12.27;100.00
51928;BME280;37953;52.806;18.270;2023-04-20T09:17:52;101203.59;;;12.30;100.00
51928;BME280;37953;52.806;18.270;2023-04-20T09:20:32;101202.72;;;12.34;100.00
51928;BME280;37953;52.806;18.270;2023-04-20T09:25:37;101202.81;;;12.43;100.00
51928;BME280;37953;52.806;18.270;2023-04-20T09:28:09;101198.47;;;12.45;100.00
51928;BME280;37953;52.806;18.270;2023-04-20T09:30:40;101208.06;;;12.49;100.00
51928;BME280;37953;52.806;18.270;2023-04-20T09:33:14;101210.69;;;12.54;100.00
51928;BME280;37953;52.806;18.270;2023-04-20T09:35:42;101213.34;;;12.60;100.00
51928;BME280;37953;52.806;18.270;2023-04-20T09:38:15;101214.19;;;12.63;100.00
51928;BME280;37953;52.806;18.270;2023-04-20T09:40:41;101205.53;;;12.68;100.00
51928;BME280;37953;52.806;18.270;2023-04-20T09:43:18;101213.41;;;12.71;100.00
51928;BME280;37953;52.806;18.270;2023-04-20T09:45:44;101212.59;;;12.81;100.00
51928;BME280;37953;52.806;18.270;2023-04-20T09:48:10;101213.50;;;12.88;100.00
51928;BME280;37953;52.806;18.270;2023-04-20T09:50:38;101212.66;;;12.93;100.00
51928;BME280;37953;52.806;18.270;2023-04-20T09:53:04;101208.31;;;12.97;100.00
51928;BME280;37953;52.806;18.270;2023-04-20T09:55:37;101206.59;;;13.03;100.00
51928;BME280;37953;52.806;18.270;2023-04-20T09:58:03;101209.25;;;13.11;100.00
51928;BME280;37953;52.806;18.270;2023-04-20T10:00:29;101211.03;;;13.17;100.00
51928;BME280;37953;52.806;18.270;2023-04-20T10:02:56;101207.56;;;13.24;100.00
51928;BME280;37953;52.806;18.270;2023-04-20T10:05:40;101211.13;;;13.34;100.00
51928;BME280;37953;52.806;18.270;2023-04-20T10:08:12;101203.31;;;13.43;100.00
51928;BME280;37953;52.806;18.270;2023-04-20T10:10:46;101199.84;;;13.49;100.00
51928;BME280;37953;52.806;18.270;2023-04-20T10:13:19;101202.47;;;13.55;100.00
51928;BME280;37953;52.806;18.270;2023-04-20T10:15:46;101193.78;;;13.63;100.00
51928;BME280;37953;52.806;18.270;2023-04-20T10:18:19;101195.53;;;13.69;100.00
51928;BME280;37953;52.806;18.270;2023-04-20T10:20:45;101192.03;;;13.73;100.00
51928;BME280;37953;52.806;18.270;2023-04-20T10:23:12;101192.06;;;13.79;100.00
51928;BME280;37953;52.806;18.270;2023-04-20T10:25:41;101192.94;;;13.88;100.00
51928;BME280;37953;52.806;18.270;2023-04-20T10:28:09;101192.94;;;13.92;100.00
51928;BME280;37953;52.806;18.270;2023-04-20T10:30:36;101185.09;;;13.97;100.00
51928;BME280;37953;52.806;18.270;2023-04-20T10:33:19;101187.72;;;14.00;100.00
51928;BME280;37953;52.806;18.270;2023-04-20T10:35:50;101188.59;;;14.05;100.00
51928;BME280;37953;52.806;18.270;2023-04-20T10:38:35;101175.53;;;14.07;100.00
51928;BME280;37953;52.806;18.270;2023-04-20T10:41:13;101181.63;;;14.10;100.00
51928;BME280;37953;52.806;18.270;2023-04-20T10:43:39;101182.50;;;14.12;100.00
51928;BME280;37953;52.806;18.270;2023-04-20T10:46:23;101174.66;;;14.14;100.00
51928;BME280;37953;52.806;18.270;2023-04-20T10:51:16;101173.78;;;14.16;100.00
51928;BME280;37953;52.806;18.270;2023-04-20T10:53:43;101172.94;;;14.20;100.00
51928;BME280;37953;52.806;18.270;2023-04-20T10:56:09;101169.41;;;14.26;100.00
51928;BME280;37953;52.806;18.270;2023-04-20T10:58:35;101168.56;;;14.33;100.00
51928;BME280;37953;52.806;18.270;2023-04-20T11:01:03;101171.16;;;14.36;100.00
51928;BME280;37953;52.806;18.270;2023-04-20T11:03:35;101161.56;;;14.37;100.00
51928;BME280;37953;52.806;18.270;2023-04-20T11:06:01;101169.38;;;14.43;100.00
51928;BME280;37953;52.806;18.270;2023-04-20T11:08:39;101163.28;;;14.50;100.00
51928;BME280;37953;52.806;18.270;2023-04-20T11:11:16;101163.28;;;14.53;100.00
51928;BME280;37953;52.806;18.270;2023-04-20T11:13:43;101157.19;;;14.54;100.00
51928;BME280;37953;52.806;18.270;2023-04-20T11:16:15;101163.31;;;14.56;100.00
51928;BME280;37953;52.806;18.270;2023-04-20T11:19:08;101154.56;;;14.62;100.00
51928;BME280;37953;52.806;18.270;2023-04-20T11:21:39;101158.91;;;14.68;100.00
51928;BME280;37953;52.806;18.270;2023-04-20T11:24:22;101158.03;;;14.70;100.00
51928;BME280;37953;52.806;18.270;2023-04-20T11:26:50;101151.88;;;14.77;100.00
51928;BME280;37953;52.806;18.270;2023-04-20T11:29:37;101158.00;;;14.82;100.00
51928;BME280;37953;52.806;18.270;2023-04-20T11:32:08;101156.22;;;14.83;100.00
51928;BME280;37953;52.806;18.270;2023-04-20T11:34:36;101166.69;;;14.88;100.00
51928;BME280;37953;52.806;18.270;2023-04-20T11:37:09;101164.06;;;14.89;100.00
51928;BME280;37953;52.806;18.270;2023-04-20T11:39:38;101169.31;;;14.92;100.00
51928;BME280;37953;52.806;18.270;2023-04-20T11:42:04;101165.75;;;14.96;100.00
51928;BME280;37953;52.806;18.270;2023-04-20T11:44:37;101166.63;;;15.03;100.00
51928;BME280;37953;52.806;18.270;2023-04-20T11:47:05;101165.69;;;15.13;100.00
51928;BME280;37953;52.806;18.270;2023-04-20T11:49:32;101163.94;;;15.20;100.00
51928;BME280;37953;52.806;18.270;2023-04-20T11:51:58;101163.03;;;15.24;100.00
51928;BME280;37953;52.806;18.270;2023-04-20T11:54:24;101158.63;;;15.26;100.00
51928;BME280;37953;52.806;18.270;2023-04-20T11:56:56;101156.88;;;15.31;100.00
51928;BME280;37953;52.806;18.270;2023-04-20T11:59:24;101156.88;;;15.31;100.00
51928;BME280;37953;52.806;18.270;2023-04-20T12:01:49;101157.75;;;15.32;100.00
51928;BME280;37953;52.806;18.270;2023-04-20T12:04:17;101153.41;;;15.31;100.00
51928;BME280;37953;52.806;18.270;2023-04-20T12:06:43;101156.03;;;15.31;100.00
51928;BME280;37953;52.806;18.270;2023-04-20T12:09:09;101148.16;;;15.29;100.00
51928;BME280;37953;52.806;18.270;2023-04-20T12:11:35;101147.28;;;15.32;100.00
51928;BME280;37953;52.806;18.270;2023-04-20T12:14:01;101141.16;;;15.37;100.00
51928;BME280;37953;52.806;18.270;2023-04-20T12:16:33;101134.97;;;15.43;100.00
51928;BME280;37953;52.806;18.270;2023-04-20T12:19:00;101143.69;;;15.50;100.00
51928;BME280;37953;52.806;18.270;2023-04-20T12:21:25;101144.50;;;15.55;100.00
51928;BME280;37953;52.806;18.270;2023-04-20T12:23:52;101143.56;;;15.62;100.00
51928;BME280;37953;52.806;18.270;2023-04-20T12:26:18;101147.00;;;15.70;100.00
51928;BME280;37953;52.806;18.270;2023-04-20T12:28:44;101136.56;;;15.75;100.00
51928;BME280;37953;52.806;18.270;2023-04-20T12:31:10;101140.03;;;15.74;100.00
51928;BME280;37953;52.806;18.270;2023-04-20T12:33:39;101154.00;;;15.70;100.00
51928;BME280;37953;52.806;18.270;2023-04-20T12:36:05;101162.78;;;15.65;100.00
51928;BME280;37953;52.806;18.270;2023-04-20T12:38:31;101160.19;;;15.61;100.00
51928;BME280;37953;52.806;18.270;2023-04-20T12:40:57;101154.13;;;15.54;100.00
51928;BME280;37953;52.806;18.270;2023-04-20T12:43:23;101137.59;;;15.44;100.00